Pageton, West Virginia
Current Conditions -  °F | °C
As of 9:52 AM on Wednesday 26 Nov 2014 (Local Time) from KBLF Reporting Station
Moderate Snow Moderate Snow  
Wind Chill: 35°   Ceiling: 900
Heat Index: 35°   Visibility: 0.5mi
Dew Point: 31°   Wind: 3mph
Humidity: 85%   Direction: 290°WNW
Pressure: 30"   Gusts: NA
Location:  37.35°N, 81.47°W
Report Text: KBLF 261452Z AUTO 29003KT 1/2SM SN FG FEW005 OVC009 02/M01 A3000 RMK AO2 SLP162 P0008 60024 T00171006 51007
Loading
Personal Weather Stations






























Interactive Weather Map New forecast layout! Learn more

10-Day Weather Forecast

Advertisements
Track Severe Weather on mobile